Time;durP1;ratioP1;P1;durP2;ratioP2;P2;SDS_P1;SDS_P2;PMS_P1;PMS_P2;Temp;Humidity;BMP_temperature;BMP_pressure;BME280_temperature;BME280_humidity;BME280_pressure;Samples;Min_cycle;Max_cycle;Signal;HPM_P1;HPM_P2
2021/11/21 00:00:28;;;;;;;8.57;8.07;;;8.10;80.00;;;;;;5041605;28;20041;-78
2021/11/21 00:02:54;;;;;;;7.80;7.40;;;8.10;80.00;;;;;;5045157;28;20033;-78
2021/11/21 00:05:20;;;;;;;8.43;8.02;;;8.10;80.00;;;;;;5051130;28;20044;-78
2021/11/21 00:07:46;;;;;;;8.35;7.95;;;8.10;80.00;;;;;;5052061;28;20037;-78
2021/11/21 00:10:12;;;;;;;7.40;7.10;;;8.10;80.00;;;;;;5053081;28;20393;-78
2021/11/21 00:12:39;;;;;;;9.70;8.60;;;8.10;80.10;;;;;;5028035;28;20037;-78
2021/11/21 00:15:05;;;;;;;7.75;7.35;;;8.10;80.00;;;;;;5050607;28;20045;-78
2021/11/21 00:17:32;;;;;;;8.60;8.07;;;8.00;80.10;;;;;;5031409;28;20038;-78
2021/11/21 00:19:58;;;;;;;7.90;7.40;;;8.00;80.00;;;;;;5049459;28;20466;-78
2021/11/21 00:22:25;;;;;;;7.57;7.07;;;8.00;80.10;;;;;;5050033;28;20039;-78
2021/11/21 00:24:51;;;;;;;7.55;7.18;;;8.00;80.10;;;;;;5082952;28;20036;-78
2021/11/21 00:27:18;;;;;;;8.57;7.87;;;7.90;80.10;;;;;;5052210;28;20049;-78
2021/11/21 00:29:44;;;;;;;8.47;7.87;;;7.90;80.10;;;;;;5050519;28;20045;-78
2021/11/21 00:32:10;;;;;;;8.00;7.23;;;7.90;80.20;;;;;;5051203;28;20048;-78
2021/11/21 00:34:37;;;;;;;7.27;6.87;;;7.90;80.20;;;;;;5033893;28;20045;-78
2021/11/21 00:37:03;;;;;;;6.67;6.37;;;7.90;80.20;;;;;;5050781;28;20049;-78
2021/11/21 00:39:29;;;;;;;6.77;6.47;;;7.90;80.10;;;;;;5052199;28;20047;-78
2021/11/21 00:41:55;;;;;;;6.67;6.37;;;7.90;80.20;;;;;;5047034;28;20048;-78
2021/11/21 00:44:22;;;;;;;9.40;7.20;;;7.90;80.20;;;;;;5045775;28;20051;-78
2021/11/21 00:46:48;;;;;;;7.00;6.70;;;7.90;80.20;;;;;;5082400;28;20047;-78
2021/11/21 00:49:16;;;;;;;7.28;6.88;;;7.90;80.10;;;;;;5066606;28;20104;-78
2021/11/21 00:51:43;;;;;;;7.70;7.20;;;7.90;80.10;;;;;;5072278;28;20033;-78
2021/11/21 00:54:22;;;;;;;13.02;7.50;;;7.90;80.10;;;;;;5050201;28;20492;-78
2021/11/21 00:56:49;;;;;;;6.70;6.40;;;7.90;80.10;;;;;;5080456;28;20064;-78
2021/11/21 00:59:19;;;;;;;7.20;6.80;;;7.90;80.00;;;;;;5048286;28;20032;-78
2021/11/21 01:01:49;;;;;;;10.10;9.07;;;7.90;80.00;;;;;;5043657;28;20041;-78
2021/11/21 01:04:16;;;;;;;7.15;6.75;;;7.90;80.10;;;;;;5057725;28;20767;-78
2021/11/21 01:06:42;;;;;;;7.93;7.45;;;7.90;80.00;;;;;;5042289;28;20025;-78
2021/11/21 01:09:08;;;;;;;8.27;7.70;;;7.90;80.00;;;;;;5075276;28;20049;-78
2021/11/21 01:11:34;;;;;;;8.77;8.27;;;7.90;80.10;;;;;;5044491;28;20025;-78
2021/11/21 01:14:01;;;;;;;8.57;7.97;;;7.90;80.10;;;;;;5048671;28;20057;-78
2021/11/21 01:16:27;;;;;;;10.50;8.88;;;8.00;80.50;;;;;;5051603;28;20033;-78
2021/11/21 01:18:53;;;;;;;9.27;8.70;;;8.00;80.00;;;;;;5049734;28;20389;-78
2021/11/21 01:21:19;;;;;;;8.00;7.50;;;8.00;80.00;;;;;;5048302;28;20021;-78
2021/11/21 01:23:45;;;;;;;7.30;7.00;;;8.10;80.00;;;;;;5049323;28;20417;-78
2021/11/21 01:26:11;;;;;;;9.85;9.05;;;8.10;80.00;;;;;;5051126;28;20374;-78
2021/11/21 01:28:37;;;;;;;8.77;8.25;;;8.10;79.90;;;;;;5048049;28;20041;-78
2021/11/21 01:31:03;;;;;;;7.07;6.68;;;8.10;80.60;;;;;;5048102;28;20378;-78
2021/11/21 01:33:29;;;;;;;7.00;6.60;;;8.20;79.90;;;;;;5051995;28;20036;-78
2021/11/21 01:35:56;;;;;;;7.32;6.90;;;8.20;79.80;;;;;;5049464;28;20049;-78
2021/11/21 01:38:22;;;;;;;7.57;7.00;;;8.20;79.90;;;;;;5050712;28;20021;-78
2021/11/21 01:40:48;;;;;;;8.55;7.53;;;8.10;79.90;;;;;;5044987;28;20310;-78
2021/11/21 01:43:14;;;;;;;7.53;7.13;;;8.10;79.90;;;;;;5048558;28;20064;-78
2021/11/21 01:45:40;;;;;;;7.18;6.78;;;8.10;79.90;;;;;;5050195;28;20041;-78
2021/11/21 01:48:06;;;;;;;6.95;6.57;;;8.10;80.00;;;;;;5050015;28;20385;-78
2021/11/21 01:50:35;;;;;;;7.90;7.28;;;8.10;79.90;;;;;;5050724;28;20043;-78
2021/11/21 01:53:01;;;;;;;7.57;7.18;;;8.10;79.90;;;;;;5049648;28;20040;-78
2021/11/21 01:55:27;;;;;;;8.13;7.63;;;8.10;79.90;;;;;;5048817;28;20041;-78
2021/11/21 01:57:53;;;;;;;7.27;6.83;;;8.10;80.00;;;;;;5051445;28;20029;-78
2021/11/21 02:00:19;;;;;;;6.70;6.40;;;8.00;80.10;;;;;;5044699;28;20397;-78
2021/11/21 02:02:46;;;;;;;7.05;6.65;;;8.00;80.10;;;;;;5078838;28;20048;-78
2021/11/21 02:05:12;;;;;;;8.40;7.63;;;8.10;81.00;;;;;;5050178;28;20393;-78
2021/11/21 02:07:41;;;;;;;8.97;7.87;;;8.10;80.10;;;;;;5050249;28;20056;-78
2021/11/21 02:10:08;;;;;;;9.05;8.52;;;8.10;80.10;;;;;;5048801;28;20040;-78
2021/11/21 02:12:34;;;;;;;7.97;7.37;;;8.10;80.00;;;;;;5048516;28;20029;-78
2021/11/21 02:15:00;;;;;;;7.68;7.18;;;8.10;80.00;;;;;;5048299;28;20052;-78
2021/11/21 02:17:26;;;;;;;8.53;8.03;;;8.10;80.00;;;;;;5079420;28;20033;-78
2021/11/21 02:19:53;;;;;;;7.80;7.40;;;8.10;80.00;;;;;;5030909;28;20053;-78
2021/11/21 02:22:19;;;;;;;9.95;9.32;;;8.20;80.10;;;;;;5048550;28;20477;-78
2021/11/21 02:24:45;;;;;;;11.23;8.57;;;8.20;80.10;;;;;;5064535;28;20041;-78
2021/11/21 02:27:14;;;;;;;8.05;7.63;;;8.20;80.10;;;;;;5047213;28;20409;-78
2021/11/21 02:29:40;;;;;;;13.10;7.27;;;8.20;80.10;;;;;;5049043;28;20455;-78
2021/11/21 02:32:06;;;;;;;8.60;8.00;;;8.20;80.00;;;;;;5059730;28;20052;-78
2021/11/21 02:34:32;;;;;;;9.43;8.82;;;8.20;80.00;;;;;;5048688;28;20044;-78
2021/11/21 02:36:58;;;;;;;9.17;8.67;;;8.30;80.00;;;;;;5051782;28;20041;-78
2021/11/21 02:39:24;;;;;;;7.60;7.20;;;8.20;79.90;;;;;;5054143;28;20029;-78
2021/11/21 02:41:51;;;;;;;8.25;7.50;;;8.30;79.90;;;;;;5082751;28;20072;-78
2021/11/21 02:44:17;;;;;;;7.85;7.45;;;8.20;79.80;;;;;;5034711;28;20041;-78
2021/11/21 02:46:43;;;;;;;8.93;8.32;;;8.20;79.90;;;;;;5053051;28;20386;-78
2021/11/21 02:49:09;;;;;;;8.07;7.63;;;8.20;80.00;;;;;;5053616;28;20036;-78
2021/11/21 02:51:35;;;;;;;6.85;6.55;;;8.20;80.00;;;;;;5066842;28;20029;-78
2021/11/21 02:54:01;;;;;;;8.40;7.90;;;8.20;80.00;;;;;;5044509;28;20044;-78
2021/11/21 02:56:27;;;;;;;7.63;7.17;;;8.20;80.00;;;;;;5064323;28;20417;-78
2021/11/21 02:58:53;;;;;;;9.35;8.57;;;8.20;80.00;;;;;;5053416;28;20405;-78
2021/11/21 03:01:22;;;;;;;7.60;7.25;;;8.20;80.00;;;;;;5048381;28;20044;-78
2021/11/21 03:03:49;;;;;;;7.70;7.30;;;8.20;80.00;;;;;;5073323;28;20036;-78
2021/11/21 03:06:15;;;;;;;14.13;8.55;;;8.20;80.00;;;;;;5023706;28;20465;-78
2021/11/21 03:08:41;;;;;;;8.85;8.35;;;8.20;79.90;;;;;;5056961;28;20033;-78
2021/11/21 03:11:16;;;;;;;7.50;7.10;;;8.20;80.00;;;;;;5084377;28;20039;-78
2021/11/21 03:13:42;;;;;;;7.63;7.22;;;8.20;80.00;;;;;;5046596;28;20032;-78
2021/11/21 03:16:09;;;;;;;7.67;7.27;;;8.10;80.10;;;;;;5049706;28;20046;-78
2021/11/21 03:18:35;;;;;;;8.48;7.85;;;8.10;80.10;;;;;;5046736;28;20398;-78
2021/11/21 03:21:01;;;;;;;7.78;7.18;;;8.10;80.20;;;;;;5056765;28;20040;-78
2021/11/21 03:23:27;;;;;;;8.45;7.63;;;8.10;80.10;;;;;;5055122;28;20040;-78
2021/11/21 03:25:53;;;;;;;7.88;7.28;;;8.10;80.10;;;;;;5077429;28;20032;-78
2021/11/21 03:28:19;;;;;;;6.90;6.60;;;8.20;80.10;;;;;;5048643;28;20045;-78
2021/11/21 03:30:45;;;;;;;7.50;7.10;;;8.20;80.10;;;;;;5047604;28;20041;-78
2021/11/21 03:33:11;;;;;;;8.40;7.95;;;8.20;80.00;;;;;;5087297;28;20040;-78
2021/11/21 03:35:37;;;;;;;8.48;8.00;;;8.20;80.00;;;;;;5054091;28;20041;-78
2021/11/21 03:38:03;;;;;;;7.65;7.20;;;8.20;80.00;;;;;;5053647;28;20390;-78
2021/11/21 03:40:29;;;;;;;7.90;7.38;;;8.20;80.00;;;;;;5051505;28;20033;-78
2021/11/21 03:42:56;;;;;;;7.38;6.90;;;8.20;80.10;;;;;;5051209;28;20028;-78
2021/11/21 03:45:22;;;;;;;8.55;7.80;;;8.20;80.10;;;;;;5051517;28;20056;-78
2021/11/21 03:47:48;;;;;;;7.18;6.88;;;8.20;80.10;;;;;;5053100;28;20037;-78
2021/11/21 03:50:16;;;;;;;9.85;7.90;;;8.20;80.00;;;;;;5051900;28;20041;-78
2021/11/21 03:52:43;;;;;;;8.88;8.27;;;8.20;80.00;;;;;;5051111;28;20040;-78
2021/11/21 03:55:10;;;;;;;8.38;7.97;;;8.20;80.00;;;;;;5052686;28;20043;-78
2021/11/21 03:57:36;;;;;;;8.30;7.65;;;8.30;80.00;;;;;;5016109;28;20045;-78
2021/11/21 04:00:05;;;;;;;8.35;7.82;;;8.30;80.00;;;;;;5049205;28;20060;-78
2021/11/21 04:02:31;;;;;;;9.52;8.00;;;8.30;80.00;;;;;;5052032;28;20029;-78
2021/11/21 04:04:57;;;;;;;7.97;7.53;;;8.30;80.00;;;;;;5082529;28;20025;-78
2021/11/21 04:07:23;;;;;;;9.90;7.60;;;8.30;80.00;;;;;;5052020;28;20025;-78
2021/11/21 04:09:49;;;;;;;7.07;6.78;;;8.30;79.90;;;;;;5053266;28;20041;-77
2021/11/21 04:12:15;;;;;;;8.30;7.82;;;8.30;80.00;;;;;;5051840;28;20025;-78
2021/11/21 04:14:43;;;;;;;8.60;8.10;;;8.30;79.90;;;;;;5052657;28;20052;-78
2021/11/21 04:17:09;;;;;;;8.40;7.93;;;8.30;79.90;;;;;;5050999;28;20379;-78
2021/11/21 04:19:35;;;;;;;8.45;7.75;;;8.30;80.00;;;;;;5067847;28;20040;-77
2021/11/21 04:22:02;;;;;;;8.02;7.63;;;8.40;80.00;;;;;;5051810;28;20028;-78
2021/11/21 04:24:28;;;;;;;7.40;7.00;;;8.40;80.00;;;;;;5050515;28;20041;-78
2021/11/21 04:26:54;;;;;;;8.02;7.47;;;8.40;79.90;;;;;;5046524;28;20056;-78
2021/11/21 04:29:20;;;;;;;7.60;7.20;;;8.40;79.90;;;;;;5083796;28;20025;-78
2021/11/21 04:31:48;;;;;;;7.40;6.90;;;8.40;79.90;;;;;;5050821;28;20470;-77
2021/11/21 04:34:14;;;;;;;10.30;9.00;;;8.40;79.90;;;;;;5052284;28;20060;-78
2021/11/21 04:36:40;;;;;;;8.32;7.93;;;8.40;79.90;;;;;;5053126;28;20052;-78
2021/11/21 04:39:06;;;;;;;8.05;7.63;;;8.40;79.90;;;;;;5052443;28;20457;-78
2021/11/21 04:41:32;;;;;;;7.75;7.32;;;8.50;79.90;;;;;;5051657;28;20028;-78
2021/11/21 04:43:58;;;;;;;7.38;6.97;;;8.50;80.00;;;;;;5052653;28;20504;-78
2021/11/21 04:46:25;;;;;;;8.18;7.68;;;8.50;79.90;;;;;;5051881;28;20040;-78
2021/11/21 04:48:51;;;;;;;8.25;7.85;;;8.50;79.90;;;;;;5051089;28;20029;-78
2021/11/21 04:51:17;;;;;;;8.55;8.05;;;8.50;79.90;;;;;;5052888;28;20043;-78
2021/11/21 04:53:43;;;;;;;10.63;9.25;;;8.50;80.00;;;;;;5052069;28;20029;-78
2021/11/21 04:56:10;;;;;;;8.95;8.25;;;8.50;80.00;;;;;;5051690;28;20053;-78
2021/11/21 04:58:36;;;;;;;8.32;7.95;;;8.50;80.00;;;;;;5050557;28;20028;-78
2021/11/21 05:01:02;;;;;;;9.02;8.43;;;8.50;79.90;;;;;;5050669;28;20405;-78
2021/11/21 05:03:28;;;;;;;8.73;8.18;;;8.50;79.90;;;;;;5066130;28;20029;-77
2021/11/21 05:05:55;;;;;;;9.15;8.65;;;8.50;79.90;;;;;;5052285;28;20028;-78
2021/11/21 05:08:22;;;;;;;10.73;9.30;;;8.50;79.90;;;;;;5050782;28;20060;-78
2021/11/21 05:10:48;;;;;;;7.78;7.38;;;8.50;79.90;;;;;;5050047;28;20020;-78
2021/11/21 05:13:14;;;;;;;16.42;9.30;;;8.50;80.00;;;;;;5050910;28;20059;-78
2021/11/21 05:15:40;;;;;;;8.38;7.90;;;8.50;80.00;;;;;;5050621;28;20049;-78
2021/11/21 05:18:06;;;;;;;16.35;8.77;;;8.50;80.00;;;;;;5051747;28;20029;-77
2021/11/21 05:20:32;;;;;;;7.10;6.80;;;8.50;80.00;;;;;;5050828;28;20036;-78
2021/11/21 05:22:58;;;;;;;8.53;8.07;;;8.50;80.00;;;;;;5051893;28;20021;-78
2021/11/21 05:25:24;;;;;;;7.88;7.40;;;8.50;80.00;;;;;;5042416;28;20040;-78
2021/11/21 05:27:51;;;;;;;7.22;6.90;;;8.50;79.90;;;;;;5051955;28;20037;-78
2021/11/21 05:30:18;;;;;;;14.85;8.68;;;8.50;80.00;;;;;;5050931;28;20387;-77
2021/11/21 05:32:44;;;;;;;7.40;7.05;;;8.50;79.90;;;;;;5050226;28;20036;-78
2021/11/21 05:35:11;;;;;;;8.80;8.30;;;8.50;79.90;;;;;;5050208;28;20033;-78
2021/11/21 05:37:37;;;;;;;8.70;7.47;;;8.50;79.90;;;;;;5051513;28;20037;-78
2021/11/21 05:40:04;;;;;;;9.60;8.90;;;8.50;79.90;;;;;;5032323;28;20488;-78
2021/11/21 05:42:30;;;;;;;7.43;7.03;;;8.50;80.00;;;;;;5017331;28;20044;-78
2021/11/21 05:44:57;;;;;;;8.90;8.23;;;8.50;80.00;;;;;;5051467;28;20029;-78
2021/11/21 05:47:23;;;;;;;7.40;6.97;;;8.50;80.00;;;;;;5050753;28;20486;-79
2021/11/21 05:49:49;;;;;;;8.32;7.68;;;8.50;80.00;;;;;;5049574;28;20387;-78
2021/11/21 05:52:15;;;;;;;7.85;7.45;;;8.50;80.00;;;;;;5050945;28;20045;-78
2021/11/21 05:54:43;;;;;;;8.13;7.57;;;8.50;80.00;;;;;;5049954;28;20036;-78
2021/11/21 05:57:09;;;;;;;7.70;7.30;;;8.50;80.00;;;;;;5051175;28;20409;-78
2021/11/21 05:59:37;;;;;;;10.98;7.72;;;8.50;80.10;;;;;;5048684;28;20048;-79
2021/11/21 06:02:03;;;;;;;6.93;6.53;;;8.50;80.10;;;;;;5049171;28;20044;-79
2021/11/21 06:04:29;;;;;;;8.70;8.05;;;8.50;80.10;;;;;;5049172;28;20466;-80
2021/11/21 06:06:56;;;;;;;8.35;7.60;;;8.50;80.10;;;;;;5066302;28;20029;-79
2021/11/21 06:09:22;;;;;;;7.90;7.50;;;8.50;80.10;;;;;;5049965;28;20500;-79
2021/11/21 06:11:48;;;;;;;8.40;7.88;;;8.50;80.10;;;;;;5049684;28;20045;-79
2021/11/21 06:14:14;;;;;;;8.15;7.60;;;8.50;80.10;;;;;;5050182;28;20060;-79
2021/11/21 06:16:40;;;;;;;7.28;6.88;;;8.50;80.10;;;;;;5050808;28;20055;-79
2021/11/21 06:19:06;;;;;;;8.45;7.78;;;8.50;80.20;;;;;;5049221;28;20493;-80
2021/11/21 06:21:32;;;;;;;7.38;7.03;;;8.50;80.20;;;;;;5051722;28;20458;-80
2021/11/21 06:23:59;;;;;;;9.13;8.40;;;8.50;80.20;;;;;;5050213;28;20029;-80
2021/11/21 06:26:25;;;;;;;7.07;6.68;;;8.50;80.20;;;;;;5050978;28;20035;-79
2021/11/21 06:28:53;;;;;;;7.35;6.95;;;8.50;80.20;;;;;;5050801;28;20318;-80
2021/11/21 06:31:20;;;;;;;6.85;6.55;;;8.40;80.10;;;;;;5049355;28;20043;-79
2021/11/21 06:33:46;;;;;;;7.95;7.45;;;8.40;80.20;;;;;;5051443;28;20413;-79
2021/11/21 06:36:12;;;;;;;8.25;7.65;;;8.40;80.20;;;;;;5049832;28;20033;-79
2021/11/21 06:38:38;;;;;;;6.70;6.30;;;8.40;80.20;;;;;;5048289;28;20374;-79
2021/11/21 06:41:04;;;;;;;8.40;7.80;;;8.50;80.30;;;;;;5082480;28;20033;-79
2021/11/21 06:43:30;;;;;;;8.25;7.50;;;8.50;80.30;;;;;;5050908;28;20470;-79
2021/11/21 06:45:56;;;;;;;7.68;7.18;;;8.50;80.30;;;;;;5047100;28;20287;-79
2021/11/21 06:48:22;;;;;;;9.50;8.13;;;8.50;80.30;;;;;;5049950;28;20036;-79
2021/11/21 06:50:51;;;;;;;7.97;7.53;;;8.50;80.30;;;;;;5050027;28;20393;-79
2021/11/21 06:53:18;;;;;;;9.20;7.72;;;8.50;80.30;;;;;;5049068;28;20028;-79
2021/11/21 06:55:44;;;;;;;29.02;8.18;;;8.50;80.30;;;;;;5031434;28;20045;-79
2021/11/21 06:58:10;;;;;;;7.78;7.38;;;8.50;80.20;;;;;;5049504;28;20049;-79
2021/11/21 07:00:36;;;;;;;8.45;7.80;;;8.50;80.30;;;;;;5050165;28;20041;-79
2021/11/21 07:03:02;;;;;;;7.15;6.65;;;8.40;80.30;;;;;;5047949;28;20390;-79
2021/11/21 07:05:28;;;;;;;7.28;6.88;;;8.40;80.30;;;;;;5049153;28;20036;-78
2021/11/21 07:07:54;;;;;;;7.25;6.85;;;8.40;80.30;;;;;;5049999;28;20036;-79
2021/11/21 07:10:20;;;;;;;7.18;6.65;;;8.40;80.40;;;;;;5048516;28;20041;-79
2021/11/21 07:12:46;;;;;;;6.70;6.40;;;8.40;80.40;;;;;;5049406;28;20478;-79
2021/11/21 07:15:13;;;;;;;7.75;7.18;;;8.40;80.40;;;;;;5047852;28;20041;-79
2021/11/21 07:17:40;;;;;;;7.80;7.00;;;8.40;80.40;;;;;;5048777;28;20044;-77
2021/11/21 07:20:06;;;;;;;7.38;6.97;;;8.40;80.40;;;;;;5048387;28;20025;-78
2021/11/21 07:22:32;;;;;;;7.35;6.93;;;8.40;80.40;;;;;;5051966;28;20037;-78
2021/11/21 07:24:59;;;;;;;8.52;7.50;;;8.40;80.40;;;;;;5053045;28;20031;-78
2021/11/21 07:27:25;;;;;;;8.15;7.55;;;8.40;80.40;;;;;;5053976;28;20036;-78
2021/11/21 07:29:51;;;;;;;6.90;6.50;;;8.40;80.40;;;;;;5053223;28;20033;-78
2021/11/21 07:32:17;;;;;;;7.57;7.07;;;8.40;80.40;;;;;;5051697;28;20536;-77
2021/11/21 07:34:43;;;;;;;7.85;7.35;;;8.40;80.40;;;;;;5053497;28;20029;-78
2021/11/21 07:37:09;;;;;;;7.32;6.93;;;8.40;80.40;;;;;;5053996;28;20071;-78
2021/11/21 07:39:35;;;;;;;7.97;7.47;;;8.40;80.40;;;;;;5053962;28;20032;-77
2021/11/21 07:42:02;;;;;;;9.02;8.25;;;8.40;80.40;;;;;;5053445;28;20664;-78
2021/11/21 07:44:28;;;;;;;8.30;7.53;;;8.40;80.40;;;;;;5053442;28;20442;-78
2021/11/21 07:46:54;;;;;;;8.10;7.65;;;8.40;80.40;;;;;;5053204;28;20044;-78
2021/11/21 07:49:20;;;;;;;10.93;8.35;;;8.40;80.40;;;;;;5052375;28;20031;-78
2021/11/21 07:51:47;;;;;;;8.65;7.93;;;8.50;80.50;;;;;;5052487;28;20493;-82
2021/11/21 07:54:13;;;;;;;9.68;7.35;;;8.40;80.50;;;;;;5052964;28;20481;-82
2021/11/21 07:56:40;;;;;;;6.40;5.90;;;8.50;80.60;;;;;;5053194;28;20032;-84
2021/11/21 07:59:06;;;;;;;6.82;6.30;;;8.60;80.50;;;;;;5053407;28;20032;-87
2021/11/21 08:01:32;;;;;;;6.45;6.15;;;8.80;80.40;;;;;;5052653;28;20506;-85
2021/11/21 08:03:58;;;;;;;7.13;6.53;;;8.90;80.40;;;;;;5052636;28;20029;-83
2021/11/21 08:06:24;;;;;;;6.45;6.10;;;9.10;80.20;;;;;;5052158;28;20492;-83
2021/11/21 08:08:50;;;;;;;8.23;7.45;;;9.30;80.80;;;;;;5085498;28;20037;-83
2021/11/21 08:11:16;;;;;;;8.07;7.57;;;9.50;79.80;;;;;;5055569;28;20481;-82
2021/11/21 08:13:42;;;;;;;8.88;8.18;;;9.70;79.80;;;;;;5054090;28;20052;-83
2021/11/21 08:16:08;;;;;;;8.40;7.85;;;9.80;79.60;;;;;;5053908;28;20043;-83
2021/11/21 08:18:34;;;;;;;7.20;6.80;;;9.90;79.60;;;;;;5052731;28;20047;-83
2021/11/21 08:21:00;;;;;;;12.25;7.60;;;9.90;79.60;;;;;;5069712;28;20045;-81
2021/11/21 08:23:26;;;;;;;9.13;8.48;;;10.00;79.60;;;;;;5054285;28;20032;-82
2021/11/21 08:25:53;;;;;;;8.05;7.45;;;10.00;79.60;;;;;;5033171;28;20490;-82
2021/11/21 08:28:19;;;;;;;8.15;7.57;;;10.10;80.50;;;;;;5055194;28;20024;-83
2021/11/21 08:30:45;;;;;;;8.10;7.60;;;10.20;79.70;;;;;;5052968;28;20440;-82
2021/11/21 08:33:11;;;;;;;19.63;7.82;;;10.30;79.60;;;;;;5053697;28;20029;-82
2021/11/21 08:35:37;;;;;;;8.82;8.15;;;10.40;79.70;;;;;;5052710;28;20389;-83
2021/11/21 08:38:04;;;;;;;10.60;8.25;;;10.40;79.70;;;;;;5053602;28;20557;-82
2021/11/21 08:40:30;;;;;;;7.57;6.97;;;10.50;79.70;;;;;;5052359;28;20370;-82
2021/11/21 08:42:57;;;;;;;7.22;6.72;;;10.50;79.70;;;;;;5085111;28;20025;-84
2021/11/21 08:45:23;;;;;;;6.65;6.25;;;10.50;79.80;;;;;;5053392;28;20052;-85
2021/11/21 08:47:49;;;;;;;8.75;8.02;;;10.50;79.80;;;;;;5053051;28;20401;-85
2021/11/21 08:50:15;;;;;;;8.35;7.85;;;10.40;79.90;;;;;;5052583;28;20029;-86
2021/11/21 08:52:42;;;;;;;9.10;8.07;;;10.40;80.00;;;;;;5052582;28;20454;-85
2021/11/21 08:55:08;;;;;;;8.02;7.15;;;10.30;80.10;;;;;;5053339;28;20032;-84
2021/11/21 08:57:34;;;;;;;9.98;9.18;;;10.20;80.30;;;;;;5052529;28;20043;-80
2021/11/21 09:00:06;;;;;;;8.45;7.75;;;10.20;80.40;;;;;;5068249;28;20036;-80
2021/11/21 09:02:33;;;;;;;8.73;8.07;;;10.10;80.40;;;;;;5064752;28;20032;-79
2021/11/21 09:04:59;;;;;;;8.23;7.82;;;10.00;80.50;;;;;;5052617;28;20036;-80
2021/11/21 09:07:25;;;;;;;8.73;8.00;;;9.90;80.60;;;;;;5081975;28;20389;-81
2021/11/21 09:09:51;;;;;;;10.68;8.35;;;9.80;80.70;;;;;;5050186;28;20044;-81
2021/11/21 09:12:18;;;;;;;8.82;8.23;;;9.70;80.80;;;;;;5048976;28;20029;-81
2021/11/21 09:14:44;;;;;;;8.68;8.20;;;9.60;80.90;;;;;;5080892;28;20048;-81
2021/11/21 09:17:10;;;;;;;9.73;8.45;;;9.60;81.00;;;;;;5050746;28;20037;-78
2021/11/21 09:19:36;;;;;;;9.20;8.55;;;9.60;81.10;;;;;;5083891;28;20044;-78
2021/11/21 09:22:02;;;;;;;10.77;9.68;;;9.50;81.10;;;;;;5051517;28;20063;-78
2021/11/21 09:24:28;;;;;;;11.18;10.48;;;9.50;81.10;;;;;;5034114;28;20496;-78
2021/11/21 09:26:54;;;;;;;9.32;8.73;;;9.50;81.10;;;;;;5051331;28;20029;-81
2021/11/21 09:29:20;;;;;;;8.88;8.38;;;9.40;81.10;;;;;;5050396;28;20470;-78
2021/11/21 09:31:46;;;;;;;9.57;8.98;;;9.40;81.00;;;;;;5050392;28;20029;-77
2021/11/21 09:34:14;;;;;;;7.78;7.22;;;9.40;81.00;;;;;;5049778;28;20044;-77
2021/11/21 09:36:42;;;;;;;10.73;7.78;;;9.30;81.00;;;;;;5050759;28;20206;-77
2021/11/21 09:39:09;;;;;;;12.15;8.52;;;9.30;81.00;;;;;;5049791;28;20401;-77
2021/11/21 09:41:35;;;;;;;7.50;7.10;;;9.30;81.10;;;;;;5049826;28;20378;-77
2021/11/21 09:44:01;;;;;;;8.82;8.07;;;9.30;81.10;;;;;;5050660;28;20025;-78
2021/11/21 09:46:27;;;;;;;8.65;8.15;;;9.20;81.10;;;;;;5048843;28;20512;-77
2021/11/21 09:48:53;;;;;;;7.22;6.82;;;9.20;81.10;;;;;;5041729;28;20036;-79
2021/11/21 09:51:21;;;;;;;8.68;7.90;;;9.20;81.10;;;;;;5051368;28;20514;-79
2021/11/21 09:53:48;;;;;;;8.00;7.53;;;9.20;81.20;;;;;;5050782;28;20029;-80
2021/11/21 09:56:17;;;;;;;8.75;8.13;;;9.20;81.10;;;;;;5046780;28;20025;-80
2021/11/21 09:58:44;;;;;;;8.90;8.18;;;9.20;81.10;;;;;;5073907;28;20393;-80
2021/11/21 10:01:32;;;;;;;9.48;8.52;;;9.20;81.00;;;;;;5083484;28;20033;-80
2021/11/21 10:03:59;;;;;;;9.07;8.27;;;9.30;81.00;;;;;;5050004;28;20037;-79
2021/11/21 10:06:36;;;;;;;10.15;7.50;;;9.40;81.00;;;;;;5048286;28;20025;-80
2021/11/21 10:09:05;;;;;;;8.38;7.65;;;9.50;80.90;;;;;;5052203;28;20072;-81
2021/11/21 10:11:32;;;;;;;7.95;7.55;;;9.60;80.80;;;;;;5050843;28;20021;-81
2021/11/21 10:14:04;;;;;;;9.80;8.68;;;9.60;80.60;;;;;;5083214;28;20059;-81
2021/11/21 10:16:31;;;;;;;9.77;8.82;;;9.70;80.50;;;;;;5050395;28;20522;-81
2021/11/21 10:19:04;;;;;;;7.30;6.68;;;9.80;81.20;;;;;;5049915;28;20053;-80
2021/11/21 10:21:58;;;;;;;9.35;8.48;;;9.80;80.20;;;;;;5049471;28;20033;-81
2021/11/21 10:24:28;;;;;;;9.40;8.52;;;9.90;80.20;;;;;;5051699;28;20045;-81
2021/11/21 10:27:01;;;;;;;8.15;7.45;;;9.90;80.20;;;;;;5052773;28;20386;-79
2021/11/21 10:29:32;;;;;;;8.75;7.88;;;9.90;80.30;;;;;;5083453;28;20033;-79
2021/11/21 10:31:59;;;;;;;;;;;9.80;80.20;;;;;;5048789;28;20033;-79
2021/11/21 10:34:25;;;;;;;9.48;8.57;;;9.80;80.30;;;;;;5048994;28;19926;-79
2021/11/21 10:36:51;;;;;;;8.55;8.10;;;9.80;80.30;;;;;;5082404;28;20036;-79
2021/11/21 10:39:20;;;;;;;9.82;9.23;;;9.80;80.40;;;;;;5048044;28;20510;-81
2021/11/21 10:41:50;;;;;;;9.95;9.43;;;9.80;80.30;;;;;;5051572;28;20040;-81
2021/11/21 10:44:20;;;;;;;15.82;11.27;;;9.90;80.40;;;;;;5049960;28;20033;-83
2021/11/21 10:46:47;;;;;;;14.50;8.25;;;9.90;80.40;;;;;;5054273;28;20032;-78
2021/11/21 10:49:22;;;;;;;9.18;8.43;;;9.90;80.30;;;;;;5082221;28;20037;-79
2021/11/21 10:51:57;;;;;;;10.18;8.43;;;10.00;80.40;;;;;;5046560;28;20032;-78
2021/11/21 10:54:30;;;;;;;8.50;8.02;;;10.10;80.20;;;;;;5050469;28;20040;-77
2021/11/21 10:56:57;;;;;;;8.45;7.80;;;10.10;80.10;;;;;;5049887;28;20029;-81
2021/11/21 10:59:49;;;;;;;9.05;8.40;;;10.20;80.20;;;;;;5035066;28;20040;-81
2021/11/21 11:02:17;;;;;;;8.50;7.95;;;10.20;80.20;;;;;;5045722;28;20029;-81
2021/11/21 11:04:56;;;;;;;8.02;7.63;;;10.20;80.10;;;;;;5052153;28;20040;-81
2021/11/21 11:07:22;;;;;;;8.73;8.13;;;10.20;80.00;;;;;;5039066;28;20048;-84
2021/11/21 11:09:50;;;;;;;9.30;8.75;;;10.30;80.10;;;;;;5055135;28;20029;-80
2021/11/21 11:12:16;;;;;;;8.25;7.65;;;10.30;80.10;;;;;;5049645;28;20043;-80
2021/11/21 11:14:42;;;;;;;9.60;9.00;;;10.40;80.00;;;;;;5085819;28;20041;-81
2021/11/21 11:17:08;;;;;;;8.32;7.82;;;10.40;80.00;;;;;;5051053;28;20056;-81
2021/11/21 11:19:35;;;;;;;8.32;7.88;;;10.40;80.00;;;;;;5052270;28;20036;-79
2021/11/21 11:22:01;;;;;;;9.43;8.77;;;10.40;80.00;;;;;;5052617;28;20036;-78
2021/11/21 11:24:27;;;;;;;9.68;8.98;;;10.40;80.00;;;;;;5052818;28;20371;-79
2021/11/21 11:27:15;;;;;;;11.10;8.82;;;10.40;80.10;;;;;;5051741;28;20029;-80
2021/11/21 11:29:48;;;;;;;8.93;8.32;;;10.40;80.20;;;;;;5052025;28;20410;-81
2021/11/21 11:32:18;;;;;;;8.93;8.43;;;10.40;80.20;;;;;;5033841;28;20048;-82
2021/11/21 11:34:44;;;;;;;7.88;7.40;;;10.40;80.20;;;;;;5052482;28;20056;-81
2021/11/21 11:37:14;;;;;;;8.55;8.00;;;10.40;80.20;;;;;;5051531;28;20041;-83
2021/11/21 11:39:41;;;;;;;9.07;8.40;;;10.40;80.10;;;;;;5054241;28;20041;-82
2021/11/21 11:42:37;;;;;;;9.07;8.52;;;10.40;80.10;;;;;;5051112;28;20047;-81
2021/11/21 11:45:05;;;;;;;8.80;8.40;;;10.40;80.20;;;;;;5052470;28;20036;-81
2021/11/21 11:47:31;;;;;;;7.88;7.32;;;10.40;80.10;;;;;;5057436;28;20028;-82
2021/11/21 11:49:58;;;;;;;7.97;7.57;;;10.40;80.20;;;;;;5053197;28;20037;-81
2021/11/21 11:52:57;;;;;;;7.50;7.10;;;10.30;80.20;;;;;;5052478;28;20377;-81
2021/11/21 11:55:27;;;;;;;7.88;7.47;;;10.30;80.40;;;;;;5037473;28;20045;-79
2021/11/21 11:57:56;;;;;;;9.37;8.57;;;10.30;80.30;;;;;;5056387;28;20041;-79
2021/11/21 12:00:23;;;;;;;8.07;7.57;;;10.30;80.40;;;;;;5058406;28;20627;-82
2021/11/21 12:02:49;;;;;;;8.45;7.78;;;10.40;80.30;;;;;;5055093;28;20402;-80
2021/11/21 12:05:33;;;;;;;8.65;8.10;;;10.40;80.40;;;;;;5051309;28;20033;-79
2021/11/21 12:08:18;;;;;;;10.05;9.05;;;10.30;80.30;;;;;;5050626;28;20034;-78
2021/11/21 12:10:49;;;;;;;8.32;7.72;;;10.40;80.40;;;;;;5053707;28;20041;-81
2021/11/21 12:13:38;;;;;;;8.50;8.00;;;10.40;80.30;;;;;;5050544;28;20286;-79
2021/11/21 12:16:05;;;;;;;8.40;7.88;;;10.50;80.30;;;;;;5049980;28;20044;-80
2021/11/21 12:18:57;;;;;;;7.60;7.15;;;10.50;80.30;;;;;;5035158;28;20049;-82
2021/11/21 12:21:51;;;;;;;9.20;8.60;;;10.50;80.30;;;;;;5052441;28;20508;-79
2021/11/21 12:24:18;;;;;;;7.80;7.40;;;10.50;81.10;;;;;;5050755;28;20033;-81
2021/11/21 12:26:44;;;;;;;8.30;7.60;;;10.60;80.30;;;;;;5053386;28;20037;-80
2021/11/21 12:29:18;;;;;;;8.15;7.65;;;10.60;80.10;;;;;;5057481;28;20036;-82
2021/11/21 12:31:46;;;;;;;8.25;7.85;;;10.60;80.10;;;;;;5041059;28;20052;-83
2021/11/21 12:34:38;;;;;;;18.63;9.50;;;10.70;80.10;;;;;;5051438;28;20021;-82
2021/11/21 12:37:08;;;;;;;8.27;7.75;;;10.70;80.00;;;;;;5052336;28;20489;-80
2021/11/21 12:39:34;;;;;;;8.85;8.18;;;10.70;80.00;;;;;;5052325;28;20048;-80
2021/11/21 12:42:04;;;;;;;8.00;7.50;;;10.80;80.00;;;;;;5050609;28;20029;-81
2021/11/21 12:44:31;;;;;;;9.05;8.25;;;10.80;80.00;;;;;;5052394;28;20056;-81
2021/11/21 12:47:00;;;;;;;8.13;7.70;;;10.90;80.00;;;;;;5051943;28;20029;-82
2021/11/21 12:49:27;;;;;;;8.48;7.13;;;10.90;79.90;;;;;;5052030;28;20481;-81
2021/11/21 12:52:19;;;;;;;8.05;7.55;;;11.00;79.90;;;;;;5065565;28;20036;-83
2021/11/21 12:54:45;;;;;;;6.70;6.40;;;11.10;79.90;;;;;;5053164;28;20044;-80